This is the latest recevied weather packets stored in our database for station/object WE1C. If no packets are shown the sender has not sent any weather packets the latest 1 day(s).
| Time | Temp. | Humidity | Pressure | Rain* | Wind** | Luminosity | Snow |
|---|---|---|---|---|---|---|---|
| 1777977253 | 13.33° C | 69% | 1038.2 hPa | 0 mm | 0.89 m/s, 201° | 52 W/m² | - |
| 1777976949 | 13.33° C | 69% | 1038.3 hPa | 0 mm | 0 m/s | 43 W/m² | - |
| 1777976647 | 13.33° C | 69% | 1038.2 hPa | 0 mm | 0.45 m/s, 176° | 39 W/m² | - |
| 1777976343 | 13.33° C | 69% | 1038.4 hPa | 0 mm | 0.45 m/s, 180° | 36 W/m² | - |
| 1777976037 | 12.78° C | 69% | 1038.3 hPa | 0 mm | 0.45 m/s, 122° | 34 W/m² | - |
| 1777975733 | 12.78° C | 69% | 1038.2 hPa | 0 mm | 0.89 m/s, 156° | 29 W/m² | - |
| 1777975430 | 12.78° C | 69% | 1038.3 hPa | 0 mm | 0.45 m/s, 170° | 26 W/m² | - |
| 1777975126 | 12.78° C | 69% | 1038.3 hPa | 0 mm | 0 m/s | 22 W/m² | - |
| 1777974824 | 12.78° C | 69% | 1038.4 hPa | 0 mm | 0 m/s | 12 W/m² | - |
| 1777974519 | 12.78° C | 69% | 1038.3 hPa | 0 mm | 0.45 m/s, 196° | 10 W/m² | - |
| 1777974217 | 12.78° C | 68% | 1038.8 hPa | 0 mm | 0 m/s | 5 W/m² | - |
| 1777973912 | 12.78° C | 68% | 1038.3 hPa | 0 mm | 0.45 m/s, 204° | 2 W/m² | - |
| 1777973610 | 12.78° C | 68% | 1038.4 hPa | 0 mm | 0 m/s | 0 W/m² | - |
| 1777973307 | 12.78° C | 67% | 1038.7 hPa | 0 mm | 0 m/s | 0 W/m² | - |
| 1777973005 | 12.78° C | 67% | 1038.4 hPa | 0 mm | 0.45 m/s, 192° | 0 W/m² | - |
| 1777972702 | 13.33° C | 67% | 1038.4 hPa | 0 mm | 0.45 m/s, 189° | 0 W/m² | - |
| 1777972400 | 12.78° C | 67% | 1038.5 hPa | 0 mm | 0.45 m/s, 191° | 0 W/m² | - |
| 1777972098 | 13.33° C | 67% | 1038.5 hPa | 0 mm | 0 m/s | 0 W/m² | - |
| 1777971796 | 13.33° C | 66% | 1038.4 hPa | 0 mm | 0.45 m/s, 166° | 0 W/m² | - |
| 1777971493 | 12.78° C | 66% | 1038.4 hPa | 0 mm | 0.89 m/s, 195° | 0 W/m² | - |
| 1777971190 | 12.78° C | 66% | 1038.9 hPa | 0 mm | 0.45 m/s, 212° | 0 W/m² | - |
| 1777970888 | 12.78° C | 66% | 1038.7 hPa | 0 mm | 0.45 m/s, 149° | 0 W/m² | - |
| 1777970586 | 12.78° C | 66% | 1038.8 hPa | 0 mm | 0 m/s | 0 W/m² | - |
| 1777970283 | 12.78° C | 65% | 1038.9 hPa | 0 mm | 0.45 m/s, 193° | 0 W/m² | - |
| 1777969980 | 12.78° C | 65% | 1038.8 hPa | 0 mm | 0.89 m/s, 146° | 0 W/m² | - |
* Rain latest hour (hover to see other rain measurements)
** Current wind speed in m/s (hover to see current wind gust speed)